Time;durP1;ratioP1;P1;durP2;ratioP2;P2;SDS_P1;SDS_P2;PMS_P1;PMS_P2;Temp;Humidity;BMP_temperature;BMP_pressure;BME280_temperature;BME280_humidity;BME280_pressure;Samples;Min_cycle;Max_cycle;Signal;HPM_P1;HPM_P2
2022/09/05 00:00:18;;;;;;;6.10;5.60;;;18.30;99.90;;;;;;4941570;28;89745;-30
2022/09/05 00:02:57;;;;;;;7.20;6.53;;;18.10;99.90;;;;;;4941565;28;89925;-31
2022/09/05 00:05:40;;;;;;;5.78;5.00;;;18.10;99.90;;;;;;4942270;28;90115;-32
2022/09/05 00:08:22;;;;;;;8.40;6.30;;;18.00;99.90;;;;;;4941274;28;90200;-35
2022/09/05 00:10:48;;;;;;;7.25;6.65;;;18.00;99.90;;;;;;4940329;28;90536;-32
2022/09/05 00:13:22;;;;;;;7.85;7.15;;;17.90;99.90;;;;;;4940730;28;90192;-34
2022/09/05 00:16:00;;;;;;;6.95;6.43;;;17.90;99.90;;;;;;4940846;28;88697;-32
2022/09/05 00:18:33;;;;;;;6.77;5.80;;;17.90;99.90;;;;;;4941157;28;90240;-32
2022/09/05 00:21:19;;;;;;;7.25;6.65;;;17.80;99.90;;;;;;4941920;28;89132;-31
2022/09/05 00:24:31;;;;;;;7.32;6.72;;;17.80;99.90;;;;;;4941438;28;89529;-32
2022/09/05 00:27:22;;;;;;;7.82;7.03;;;17.80;99.90;;;;;;4939211;28;89028;-33
2022/09/05 00:29:59;;;;;;;7.75;7.05;;;17.70;99.90;;;;;;4940138;28;90354;-33
2022/09/05 00:32:49;;;;;;;8.83;8.03;;;17.70;99.90;;;;;;4940859;28;90004;-32
2022/09/05 00:35:47;;;;;;;7.45;6.75;;;17.60;99.90;;;;;;5012438;22;89492;-33
2022/09/05 00:38:18;;;;;;;7.55;6.85;;;17.40;99.90;;;;;;5019930;27;89870;-34
2022/09/05 00:41:09;;;;;;;7.72;6.95;;;17.30;99.90;;;;;;5020247;27;90541;-30
2022/09/05 00:43:46;;;;;;;9.05;7.65;;;17.20;99.90;;;;;;5020339;27;89780;-33
2022/09/05 00:46:22;;;;;;;7.97;7.35;;;17.10;99.90;;;;;;5020164;27;89929;-32
2022/09/05 00:49:12;;;;;;;8.25;7.55;;;17.00;99.90;;;;;;5020061;27;89564;-31
2022/09/05 00:51:47;;;;;;;9.65;8.85;;;17.00;99.90;;;;;;5019602;28;90190;-36
2022/09/05 00:54:22;;;;;;;7.72;6.97;;;17.00;99.90;;;;;;5019297;27;89752;-30
2022/09/05 00:57:18;;;;;;;9.00;8.20;;;17.00;99.90;;;;;;5020707;27;90995;-30
2022/09/05 01:00:07;;;;;;;9.77;8.80;;;17.00;99.90;;;;;;5020490;28;88722;-34
2022/09/05 01:02:51;;;;;;;9.73;8.88;;;17.00;99.90;;;;;;5019797;27;91558;-31
2022/09/05 01:05:43;;;;;;;9.85;8.60;;;17.10;99.90;;;;;;5018977;28;90973;-34
2022/09/05 01:08:14;;;;;;;11.05;8.85;;;17.10;99.90;;;;;;4995822;28;89815;-30
2022/09/05 01:10:43;;;;;;;9.45;8.50;;;17.20;99.90;;;;;;5020486;27;88214;-30
2022/09/05 01:13:33;;;;;;;10.45;8.63;;;17.20;99.90;;;;;;5020216;27;90374;-33
2022/09/05 01:16:08;;;;;;;10.23;9.23;;;17.20;99.90;;;;;;5019807;28;89632;-34
2022/09/05 01:18:41;;;;;;;10.43;8.85;;;17.20;99.90;;;;;;5019367;28;90521;-32
2022/09/05 01:21:42;;;;;;;10.68;9.68;;;17.20;99.90;;;;;;5020685;27;87866;-31
2022/09/05 01:24:16;;;;;;;9.88;8.98;;;17.30;99.90;;;;;;5009821;27;90468;-35
2022/09/05 01:26:47;;;;;;;8.80;7.97;;;17.30;99.90;;;;;;5018279;27;90063;-35
2022/09/05 01:29:36;;;;;;;10.07;9.27;;;17.30;99.90;;;;;;5020028;27;89426;-29
2022/09/05 01:32:08;;;;;;;9.88;8.98;;;17.20;99.90;;;;;;5019471;27;90255;-35
2022/09/05 01:34:52;;;;;;;10.73;9.73;;;17.20;99.90;;;;;;5018538;27;89784;-33
2022/09/05 01:38:08;;;;;;;8.27;7.63;;;17.10;99.90;;;;;;5018419;27;90170;-35
2022/09/05 01:40:40;;;;;;;9.77;8.82;;;17.10;99.90;;;;;;4976771;28;90561;-31
2022/09/05 01:43:29;;;;;;;10.45;9.55;;;17.00;99.90;;;;;;4977039;28;88752;-32
2022/09/05 01:46:22;;;;;;;10.18;9.18;;;17.00;99.90;;;;;;4997986;28;89624;-32
2022/09/05 01:49:12;;;;;;;9.85;9.02;;;17.00;99.90;;;;;;5019146;27;89623;-31
2022/09/05 01:52:20;;;;;;;11.73;10.63;;;17.00;99.90;;;;;;5014896;27;91698;-31
2022/09/05 01:54:56;;;;;;;;;;;17.00;99.90;;;;;;4993145;28;89630;-33
2022/09/05 01:57:54;;;;;;;13.43;9.00;;;17.00;99.90;;;;;;5019855;28;90374;-32
2022/09/05 02:00:27;;;;;;;9.63;8.82;;;16.90;99.90;;;;;;5017630;28;90815;-32
2022/09/05 02:03:18;;;;;;;9.63;8.80;;;17.00;99.90;;;;;;5019571;27;89654;-32
2022/09/05 02:06:18;;;;;;;8.60;7.90;;;17.00;99.90;;;;;;5019496;27;89798;-35
2022/09/05 02:08:50;;;;;;;10.70;9.73;;;17.00;99.90;;;;;;5018728;27;90292;-30
2022/09/05 02:11:15;;;;;;;11.43;9.80;;;16.90;99.90;;;;;;5018552;27;89612;-31
2022/09/05 02:13:48;;;;;;;9.65;8.85;;;16.90;99.90;;;;;;5018896;27;89727;-33
2022/09/05 02:16:37;;;;;;;10.05;9.15;;;16.90;99.90;;;;;;5018625;27;89052;-33
2022/09/05 02:19:09;;;;;;;12.25;11.20;;;16.90;99.90;;;;;;5018716;27;90323;-35
2022/09/05 02:21:40;;;;;;;10.57;9.63;;;16.90;99.90;;;;;;5018268;28;91636;-30
2022/09/05 02:24:22;;;;;;;10.25;9.35;;;16.90;99.90;;;;;;5019201;27;89271;-32
2022/09/05 02:27:02;;;;;;;9.52;8.60;;;16.90;99.90;;;;;;5018136;27;90458;-36
2022/09/05 02:30:00;;;;;;;10.63;9.73;;;16.90;99.90;;;;;;5018406;27;90152;-32
2022/09/05 02:32:52;;;;;;;10.95;10.00;;;16.80;99.90;;;;;;5018248;27;89661;-30
2022/09/05 02:36:09;;;;;;;17.80;10.90;;;16.80;99.90;;;;;;5017394;28;88895;-31
2022/09/05 02:39:18;;;;;;;11.80;10.60;;;16.70;99.90;;;;;;4996120;27;88500;-35
2022/09/05 02:42:06;;;;;;;11.32;10.32;;;16.70;99.90;;;;;;5019994;28;90641;-31
2022/09/05 02:44:37;;;;;;;11.57;10.48;;;16.60;99.90;;;;;;5014491;27;89444;-36
2022/09/05 02:47:22;;;;;;;10.85;9.82;;;16.50;99.90;;;;;;5020924;28;91137;-33
2022/09/05 02:50:21;;;;;;;11.73;10.45;;;16.50;99.90;;;;;;5022784;27;88881;-30
2022/09/05 02:52:48;;;;;;;10.70;9.68;;;16.50;99.90;;;;;;5000193;27;90235;-32
2022/09/05 02:55:30;;;;;;;12.32;11.23;;;16.40;99.90;;;;;;5001181;28;90542;-35
2022/09/05 02:58:19;;;;;;;12.57;11.50;;;16.40;99.90;;;;;;4988978;28;90528;-31
2022/09/05 03:01:00;;;;;;;12.60;11.50;;;16.40;99.90;;;;;;5000178;28;88521;-35
2022/09/05 03:03:38;;;;;;;11.95;10.68;;;16.40;99.90;;;;;;5000458;28;88928;-34
2022/09/05 03:06:17;;;;;;;14.07;12.75;;;16.40;99.90;;;;;;5000625;28;88774;-36
2022/09/05 03:08:58;;;;;;;12.30;11.35;;;16.30;99.90;;;;;;5000761;28;88997;-33
2022/09/05 03:11:49;;;;;;;13.38;12.00;;;16.30;99.90;;;;;;5000512;28;88722;-34
2022/09/05 03:14:39;;;;;;;13.70;10.43;;;16.10;99.90;;;;;;5000916;28;90183;-33
2022/09/05 03:17:28;;;;;;;12.70;11.57;;;16.00;99.90;;;;;;5000541;28;89715;-32
2022/09/05 03:20:14;;;;;;;11.60;10.57;;;16.00;99.90;;;;;;5001013;28;89899;-32
2022/09/05 03:22:42;;;;;;;13.98;12.68;;;15.90;99.90;;;;;;4988309;28;89577;-33
2022/09/05 03:25:13;;;;;;;13.10;11.77;;;15.90;99.90;;;;;;5000633;28;91150;-32
2022/09/05 03:28:03;;;;;;;13.43;12.10;;;15.90;99.90;;;;;;4987035;28;90288;-30
2022/09/05 03:31:01;;;;;;;11.75;10.75;;;15.80;99.90;;;;;;5000230;28;89277;-31
2022/09/05 03:33:42;;;;;;;;;;;15.80;99.90;;;;;;4974556;28;88724;-30
2022/09/05 03:36:39;;;;;;;13.30;12.10;;;15.70;99.90;;;;;;5002663;28;90359;-31
2022/09/05 03:39:23;;;;;;;12.60;11.50;;;15.70;99.90;;;;;;5000515;28;89901;-31
2022/09/05 03:41:58;;;;;;;11.95;10.70;;;15.70;99.90;;;;;;5000347;28;89664;-29
2022/09/05 03:44:32;;;;;;;12.18;11.15;;;15.70;99.90;;;;;;5000260;28;88045;-31
2022/09/05 03:47:32;;;;;;;12.95;11.65;;;15.70;99.90;;;;;;5000259;28;92755;-33
2022/09/05 03:50:21;;;;;;;13.18;11.93;;;15.60;99.90;;;;;;4987999;28;90404;-32
2022/09/05 03:53:07;;;;;;;12.63;11.48;;;15.60;99.90;;;;;;4998447;28;90303;-34
2022/09/05 03:55:44;;;;;;;11.43;10.32;;;15.60;99.90;;;;;;5000808;28;88191;-30
2022/09/05 03:58:35;;;;;;;12.17;11.07;;;15.60;99.90;;;;;;4999846;28;90191;-34
2022/09/05 04:01:08;;;;;;;12.02;10.95;;;15.60;99.90;;;;;;5000160;28;88513;-33
2022/09/05 04:03:48;;;;;;;13.40;12.07;;;15.60;99.90;;;;;;4999721;28;89140;-31
2022/09/05 04:06:44;;;;;;;13.55;12.43;;;15.60;99.90;;;;;;4999832;28;89197;-34
2022/09/05 04:09:38;;;;;;;12.50;11.40;;;15.60;99.90;;;;;;5000554;28;89190;-33
2022/09/05 04:12:12;;;;;;;13.35;12.23;;;15.50;99.90;;;;;;4985676;28;89174;-32
2022/09/05 04:14:57;;;;;;;13.30;12.13;;;15.50;99.90;;;;;;4999174;28;89830;-36
2022/09/05 04:17:42;;;;;;;13.73;12.40;;;15.50;99.90;;;;;;4999606;28;90681;-30
2022/09/05 04:20:40;;;;;;;12.77;11.55;;;15.50;99.90;;;;;;4999647;28;90875;-32
2022/09/05 04:23:16;;;;;;;14.68;13.38;;;15.50;99.90;;;;;;4999946;28;90253;-32
2022/09/05 04:25:51;;;;;;;14.32;12.85;;;15.40;99.90;;;;;;4987324;28;89479;-32
2022/09/05 04:28:38;;;;;;;14.43;13.18;;;15.40;99.90;;;;;;4999699;28;89917;-30
2022/09/05 04:31:44;;;;;;;13.33;12.27;;;15.40;99.90;;;;;;4999239;28;90114;-33
2022/09/05 04:34:47;;;;;;;13.35;12.25;;;15.40;99.90;;;;;;4986402;28;89909;-33
2022/09/05 04:37:34;;;;;;;11.98;10.77;;;15.30;99.90;;;;;;4999517;28;89710;-30
2022/09/05 04:40:34;;;;;;;14.13;11.90;;;15.30;99.90;;;;;;4999678;28;89108;-35
2022/09/05 04:43:04;;;;;;;16.58;14.27;;;15.20;99.90;;;;;;4989317;28;90652;-31
2022/09/05 04:45:37;;;;;;;14.27;12.98;;;15.20;99.90;;;;;;4998680;28;90070;-31
2022/09/05 04:48:05;;;;;;;16.50;14.90;;;15.20;99.90;;;;;;4999065;28;92962;-31
2022/09/05 04:50:39;;;;;;;13.77;12.38;;;15.20;99.90;;;;;;4998779;28;89059;-31
2022/09/05 04:53:13;;;;;;;14.50;13.15;;;15.10;99.90;;;;;;4999255;28;90246;-32
2022/09/05 04:55:43;;;;;;;18.13;14.43;;;15.10;99.90;;;;;;4999221;28;90024;-29
2022/09/05 04:58:32;;;;;;;16.02;14.65;;;15.10;99.90;;;;;;4999274;28;90677;-32
2022/09/05 05:01:05;;;;;;;14.05;12.77;;;15.10;99.90;;;;;;4997535;28;89047;-32
2022/09/05 05:03:32;;;;;;;13.52;12.32;;;15.10;99.90;;;;;;4998408;28;90378;-32
2022/09/05 05:06:09;;;;;;;14.37;13.10;;;15.00;99.90;;;;;;4998760;28;90487;-32
2022/09/05 05:08:50;;;;;;;14.93;13.52;;;15.00;99.90;;;;;;4998399;28;90097;-31
2022/09/05 05:11:41;;;;;;;14.77;13.48;;;15.00;99.90;;;;;;4997977;28;89715;-30
2022/09/05 05:14:19;;;;;;;14.70;13.23;;;15.00;99.90;;;;;;4987989;28;90295;-32
2022/09/05 05:16:54;;;;;;;14.93;13.70;;;15.00;99.90;;;;;;4998927;28;89443;-31
2022/09/05 05:19:32;;;;;;;14.82;13.48;;;15.00;99.90;;;;;;4992224;28;89573;-30
2022/09/05 05:22:00;;;;;;;;;;;15.00;99.90;;;;;;4999216;28;88136;-32
2022/09/05 05:24:33;;;;;;;14.82;13.25;;;15.00;99.90;;;;;;5000257;28;90560;-35
2022/09/05 05:27:06;;;;;;;14.18;12.80;;;15.00;99.90;;;;;;4997512;28;90668;-31
2022/09/05 05:30:01;;;;;;;16.30;14.85;;;15.10;99.90;;;;;;4998097;28;89923;-35
2022/09/05 05:32:30;;;;;;;14.10;12.85;;;15.10;99.90;;;;;;4988100;28;89448;-30
2022/09/05 05:35:07;;;;;;;13.48;12.27;;;15.10;99.90;;;;;;4997865;28;90389;-31
2022/09/05 05:37:44;;;;;;;17.10;13.95;;;15.20;99.90;;;;;;4997064;28;90919;-32
2022/09/05 05:40:18;;;;;;;15.00;13.60;;;15.20;99.90;;;;;;4998261;28;90355;-33
2022/09/05 05:42:45;;;;;;;14.50;13.07;;;15.30;99.90;;;;;;4998238;28;88126;-30
2022/09/05 05:45:28;;;;;;;14.90;13.43;;;15.40;99.90;;;;;;4998276;28;90104;-35
2022/09/05 05:48:05;;;;;;;15.68;13.55;;;15.40;99.90;;;;;;4998374;28;90186;-31
2022/09/05 05:50:42;;;;;;;16.70;15.13;;;15.40;99.90;;;;;;4996698;28;90802;-33
2022/09/05 05:53:27;;;;;;;14.35;12.85;;;15.50;99.90;;;;;;4998095;28;88504;-34
2022/09/05 05:56:26;;;;;;;14.38;13.15;;;15.50;99.90;;;;;;4996353;28;89954;-34
2022/09/05 05:58:57;;;;;;;16.77;15.25;;;15.60;99.90;;;;;;4998475;28;90477;-33
2022/09/05 06:01:35;;;;;;;16.60;14.80;;;15.70;99.90;;;;;;4995819;28;90004;-35
2022/09/05 06:04:25;;;;;;;14.93;13.27;;;15.70;99.90;;;;;;4987892;28;89833;-36
2022/09/05 06:07:27;;;;;;;15.52;13.77;;;15.80;99.90;;;;;;4997425;28;90427;-33
2022/09/05 06:10:05;;;;;;;16.48;14.77;;;15.70;99.90;;;;;;4977652;28;89318;-30
2022/09/05 06:12:46;;;;;;;17.23;15.63;;;15.80;99.90;;;;;;4988801;28;89787;-30
2022/09/05 06:15:45;;;;;;;17.08;15.30;;;15.80;99.90;;;;;;5001765;28;89159;-34
2022/09/05 06:18:50;;;;;;;15.75;14.25;;;15.80;99.90;;;;;;5001655;28;90161;-33
2022/09/05 06:21:42;;;;;;;15.95;14.45;;;15.90;99.90;;;;;;4994246;28;89423;-29
2022/09/05 06:24:52;;;;;;;15.63;14.07;;;15.90;99.90;;;;;;5001221;28;89142;-31
2022/09/05 06:27:40;;;;;;;17.15;15.43;;;16.00;99.90;;;;;;4957277;28;89874;-35
2022/09/05 06:30:22;;;;;;;17.23;15.32;;;16.00;99.90;;;;;;4957725;28;90320;-30
2022/09/05 06:33:26;;;;;;;16.13;14.70;;;16.00;99.90;;;;;;4989606;28;90705;-32
2022/09/05 06:36:38;;;;;;;15.40;13.95;;;16.10;99.90;;;;;;5000174;28;89489;-30
2022/09/05 06:39:29;;;;;;;16.75;15.13;;;16.20;99.90;;;;;;5001014;28;89159;-32
2022/09/05 06:42:22;;;;;;;15.73;14.07;;;16.30;99.90;;;;;;5000239;28;90725;-34
2022/09/05 06:44:54;;;;;;;16.90;15.05;;;16.40;99.90;;;;;;4991206;28;89635;-31
2022/09/05 06:47:20;;;;;;;15.93;14.45;;;16.40;99.90;;;;;;5000276;28;89574;-33
2022/09/05 06:50:22;;;;;;;17.83;16.15;;;16.50;99.90;;;;;;5000963;28;89345;-32
2022/09/05 06:53:06;;;;;;;16.63;14.93;;;16.60;99.90;;;;;;5000456;28;90514;-32
2022/09/05 06:55:59;;;;;;;17.63;15.75;;;16.80;99.90;;;;;;5000124;28;90198;-30
2022/09/05 06:58:52;;;;;;;18.10;14.82;;;16.90;99.90;;;;;;4991423;28;89372;-31
2022/09/05 07:01:28;;;;;;;16.55;14.60;;;17.00;99.90;;;;;;5000003;28;90134;-32
2022/09/05 07:03:59;;;;;;;15.77;14.32;;;17.20;99.90;;;;;;4999847;28;90308;-31
2022/09/05 07:07:12;;;;;;;15.18;13.43;;;17.30;99.90;;;;;;4999592;28;89671;-34
2022/09/05 07:10:11;;;;;;;15.10;13.60;;;17.60;99.90;;;;;;4999783;28;89552;-32
2022/09/05 07:12:49;;;;;;;14.98;13.48;;;17.80;99.90;;;;;;5000697;28;88748;-32
2022/09/05 07:15:52;;;;;;;14.20;12.52;;;18.00;99.90;;;;;;4999969;28;90194;-31
2022/09/05 07:18:33;;;;;;;14.43;12.98;;;18.20;99.90;;;;;;5000196;28;89774;-32
2022/09/05 07:21:06;;;;;;;32.58;13.32;;;18.40;99.90;;;;;;5005741;28;89857;-32
2022/09/05 07:23:51;;;;;;;12.57;11.38;;;18.60;99.90;;;;;;5019831;27;89362;-30
2022/09/05 07:26:18;;;;;;;12.18;11.05;;;18.80;99.90;;;;;;4994928;28;89856;-31
2022/09/05 07:28:48;;;;;;;13.25;11.95;;;19.00;99.90;;;;;;5019528;28;91449;-31
2022/09/05 07:31:16;;;;;;;14.27;12.82;;;19.20;99.90;;;;;;5020185;28;90111;-33
2022/09/05 07:33:45;;;;;;;11.13;10.10;;;19.30;99.90;;;;;;5019583;27;88125;-30
2022/09/05 07:36:18;;;;;;;12.10;11.00;;;19.50;99.90;;;;;;5019374;27;90205;-31
2022/09/05 07:38:49;;;;;;;10.63;9.70;;;19.70;99.90;;;;;;5020485;28;89814;-33
2022/09/05 07:41:25;;;;;;;13.45;11.20;;;19.90;99.90;;;;;;5012653;27;89813;-31
2022/09/05 07:43:57;;;;;;;13.15;11.85;;;20.10;99.90;;;;;;5003627;28;88357;-30
2022/09/05 07:46:31;;;;;;;14.50;10.77;;;20.20;99.90;;;;;;5020281;27;90220;-32
2022/09/05 07:49:07;;;;;;;11.00;9.98;;;20.40;99.90;;;;;;5020302;27;89873;-31
2022/09/05 07:51:36;;;;;;;11.85;10.65;;;20.60;99.90;;;;;;5017574;28;89533;-30
2022/09/05 07:54:19;;;;;;;11.63;10.60;;;20.70;99.90;;;;;;5019778;28;91027;-32
2022/09/05 07:56:54;;;;;;;10.60;9.57;;;20.90;99.90;;;;;;5019225;28;90878;-33
2022/09/05 07:59:23;;;;;;;11.25;9.80;;;21.00;99.90;;;;;;5020427;28;89982;-31
2022/09/05 08:01:51;;;;;;;14.77;9.40;;;21.20;99.90;;;;;;5000351;28;91152;-32
2022/09/05 08:04:35;;;;;;;12.50;11.48;;;21.30;99.90;;;;;;5001098;28;88653;-34
2022/09/05 08:07:15;;;;;;;11.23;10.02;;;21.50;99.90;;;;;;4987174;28;90199;-31
2022/09/05 08:09:43;;;;;;;13.50;10.95;;;21.50;99.90;;;;;;4998713;28;89969;-34
2022/09/05 08:12:19;;;;;;;11.43;10.27;;;21.70;99.90;;;;;;4998632;28;90102;-32
2022/09/05 08:14:47;;;;;;;15.43;9.63;;;21.90;99.90;;;;;;4999616;28;90789;-34
2022/09/05 08:17:18;;;;;;;11.48;10.48;;;22.10;99.90;;;;;;4999767;28;90219;-31
2022/09/05 08:20:01;;;;;;;12.02;10.98;;;22.20;99.90;;;;;;4999160;28;89664;-32
2022/09/05 08:22:41;;;;;;;11.43;10.23;;;22.30;99.90;;;;;;4998053;28;90335;-31
2022/09/05 08:25:16;;;;;;;10.73;9.73;;;22.40;99.90;;;;;;4998816;28;87945;-31
2022/09/05 08:27:59;;;;;;;10.02;9.15;;;22.50;99.90;;;;;;5000042;28;90282;-32
2022/09/05 08:30:25;;;;;;;9.80;8.90;;;22.70;99.90;;;;;;5000467;28;89392;-32
2022/09/05 08:33:10;;;;;;;12.75;10.73;;;22.80;99.90;;;;;;4999156;28;88781;-31
2022/09/05 08:36:28;;;;;;;10.07;9.18;;;22.90;99.90;;;;;;4998157;28;89543;-32
2022/09/05 08:38:58;;;;;;;11.85;8.88;;;23.00;99.90;;;;;;4981881;28;90019;-34
2022/09/05 08:41:40;;;;;;;10.25;9.05;;;23.00;99.90;;;;;;4999997;28;89930;-34
2022/09/05 08:44:16;;;;;;;10.43;9.50;;;23.10;99.90;;;;;;4998693;28;90054;-32
2022/09/05 08:46:48;;;;;;;10.30;9.30;;;23.10;99.90;;;;;;4999695;28;89078;-34
2022/09/05 08:49:49;;;;;;;9.68;8.88;;;23.30;99.90;;;;;;4999186;28;89267;-34
2022/09/05 08:52:20;;;;;;;8.18;7.47;;;23.50;99.90;;;;;;4999052;28;89982;-33
2022/09/05 08:54:59;;;;;;;10.23;9.25;;;23.60;99.90;;;;;;5000303;28;91005;-32
2022/09/05 08:57:54;;;;;;;10.43;9.48;;;23.60;99.90;;;;;;4999257;28;90163;-32
2022/09/05 09:00:20;;;;;;;8.65;7.90;;;23.70;99.90;;;;;;4998908;28;90748;-32
2022/09/05 09:02:55;;;;;;;10.40;8.70;;;23.70;99.90;;;;;;4999235;28;89556;-35
2022/09/05 09:05:44;;;;;;;8.43;7.82;;;23.80;99.90;;;;;;4999538;28;90036;-35
2022/09/05 09:08:22;;;;;;;8.73;7.72;;;23.80;99.90;;;;;;5000032;28;88801;-32
2022/09/05 09:11:14;;;;;;;8.45;7.57;;;23.90;99.90;;;;;;4999303;28;89937;-32
2022/09/05 09:13:58;;;;;;;7.97;7.38;;;24.00;99.90;;;;;;4998075;28;92225;-31
2022/09/05 09:16:35;;;;;;;8.48;7.72;;;24.20;99.90;;;;;;4999349;28;89006;-32
2022/09/05 09:19:10;;;;;;;14.82;8.38;;;24.30;99.90;;;;;;4999097;28;89896;-33
2022/09/05 09:22:00;;;;;;;8.25;7.50;;;24.50;99.90;;;;;;4998573;28;90440;-35
2022/09/05 09:24:28;;;;;;;9.25;8.35;;;24.50;99.90;;;;;;5012943;28;89662;-35
2022/09/05 09:27:07;;;;;;;8.93;8.23;;;24.70;99.90;;;;;;5002858;28;90096;-34
2022/09/05 09:29:38;;;;;;;7.90;7.13;;;24.70;99.90;;;;;;5007296;27;88320;-31
2022/09/05 09:32:13;;;;;;;7.93;7.22;;;24.90;99.90;;;;;;5017484;28;89619;-33
2022/09/05 09:35:06;;;;;;;8.02;6.97;;;25.00;99.90;;;;;;5018136;28;89882;-34
2022/09/05 09:38:02;;;;;;;9.65;7.75;;;25.10;99.90;;;;;;5018584;27;91187;-32
2022/09/05 09:40:40;;;;;;;7.13;6.45;;;25.30;99.90;;;;;;5017628;28;88768;-32
2022/09/05 09:43:27;;;;;;;7.50;6.32;;;25.30;99.90;;;;;;5019435;27;91593;-33
2022/09/05 09:46:24;;;;;;;7.60;6.60;;;25.40;99.90;;;;;;5018839;27;89561;-31
2022/09/05 09:48:53;;;;;;;8.83;8.00;;;25.50;99.90;;;;;;5018521;27;89792;-32
2022/09/05 09:51:30;;;;;;;9.15;6.63;;;25.60;99.90;;;;;;5018794;27;88553;-32
2022/09/05 09:53:56;;;;;;;;;;;25.60;99.90;;;;;;5018719;27;90270;-33
2022/09/05 09:57:03;;;;;;;10.18;7.53;;;25.70;99.90;;;;;;5020088;27;89147;-33
2022/09/05 09:59:43;;;;;;;7.03;6.40;;;25.80;99.90;;;;;;5017172;28;89625;-31
2022/09/05 10:02:28;;;;;;;7.47;6.18;;;25.80;99.90;;;;;;4997629;28;89340;-30
2022/09/05 10:05:25;;;;;;;6.25;5.70;;;26.00;99.90;;;;;;4998309;28;90498;-31
2022/09/05 10:08:16;;;;;;;7.78;6.30;;;26.20;99.90;;;;;;4998248;28;90802;-33
2022/09/05 10:10:57;;;;;;;9.40;6.75;;;26.40;99.60;;;;;;4998905;28;90271;-34
2022/09/05 10:13:33;;;;;;;6.68;5.82;;;26.40;99.90;;;;;;4998051;28;89525;-32
2022/09/05 10:16:22;;;;;;;8.77;5.65;;;26.50;99.90;;;;;;4997222;28;90402;-32
2022/09/05 10:18:47;;;;;;;7.35;6.65;;;26.60;99.70;;;;;;4999176;28;89606;-31
2022/09/05 10:21:49;;;;;;;7.00;6.30;;;26.70;99.40;;;;;;4998172;28;90417;-32
2022/09/05 10:24:59;;;;;;;8.85;5.88;;;26.80;97.60;;;;;;4999040;28;88987;-35
2022/09/05 10:27:27;;;;;;;5.80;5.15;;;26.90;96.70;;;;;;4985551;28;89172;-35
2022/09/05 10:30:18;;;;;;;6.38;5.78;;;26.90;96.10;;;;;;4998763;28;90147;-35
2022/09/05 10:33:18;;;;;;;7.43;6.72;;;26.90;93.70;;;;;;4986803;28;89570;-32
2022/09/05 10:35:50;;;;;;;6.18;5.68;;;26.80;94.40;;;;;;4997226;28;89436;-33
2022/09/05 10:38:41;;;;;;;6.88;5.68;;;26.90;93.20;;;;;;4998476;28;91011;-35
2022/09/05 10:41:12;;;;;;;8.25;6.03;;;26.90;92.00;;;;;;4986967;28;89606;-30
2022/09/05 10:43:59;;;;;;;14.23;6.57;;;26.90;91.30;;;;;;4998062;28;89579;-32
2022/09/05 10:46:41;;;;;;;6.17;5.60;;;26.90;91.50;;;;;;4998029;28;88868;-33
2022/09/05 10:49:11;;;;;;;12.48;5.93;;;27.00;91.40;;;;;;4997845;28;91086;-33
2022/09/05 10:51:55;;;;;;;6.65;6.05;;;27.10;92.20;;;;;;4997863;28;90109;-34
2022/09/05 10:54:32;;;;;;;5.53;5.03;;;27.20;90.10;;;;;;4998227;28;91006;-35
2022/09/05 10:57:35;;;;;;;5.43;4.93;;;27.30;90.40;;;;;;4998118;28;87862;-34
2022/09/05 11:00:14;;;;;;;7.68;5.32;;;27.50;91.10;;;;;;5000074;28;90139;-32
2022/09/05 11:02:41;;;;;;;5.38;4.70;;;27.60;87.60;;;;;;5000740;28;91118;-35
2022/09/05 11:05:36;;;;;;;4.32;4.03;;;27.80;84.70;;;;;;5001004;28;90875;-32
2022/09/05 11:08:40;;;;;;;4.70;4.40;;;27.90;79.20;;;;;;5001743;28;88825;-32
2022/09/05 11:11:17;;;;;;;6.72;4.32;;;27.90;76.10;;;;;;4967678;28;91981;-34
2022/09/05 11:13:46;;;;;;;;;;;28.00;74.10;;;;;;4987452;28;90164;-35
2022/09/05 11:16:33;;;;;;;3.80;3.28;;;27.90;71.40;;;;;;5000574;28;89107;-32
2022/09/05 11:19:04;;;;;;;4.75;3.90;;;27.80;74.40;;;;;;5001698;28;89363;-32
2022/09/05 11:21:48;;;;;;;3.92;3.63;;;27.80;73.30;;;;;;5000291;28;90482;-34
2022/09/05 11:24:26;;;;;;;4.15;3.75;;;27.80;73.50;;;;;;5000485;28;89645;-35
2022/09/05 11:27:10;;;;;;;3.30;3.10;;;28.00;70.70;;;;;;5000792;28;91046;-32
2022/09/05 11:29:43;;;;;;;3.63;3.42;;;28.00;68.20;;;;;;5020018;27;90221;-33
2022/09/05 11:32:45;;;;;;;5.22;3.33;;;28.10;70.10;;;;;;5020941;27;90020;-32
2022/09/05 11:35:16;;;;;;;5.72;4.15;;;28.20;70.10;;;;;;5019788;27;89852;-34
2022/09/05 11:37:59;;;;;;;4.82;4.28;;;28.20;68.50;;;;;;5020454;28;89406;-34
2022/09/05 11:40:33;;;;;;;6.75;4.78;;;28.20;69.00;;;;;;5020877;27;90377;-32
2022/09/05 11:43:26;;;;;;;4.28;3.92;;;28.10;66.90;;;;;;5020828;27;89057;-33
2022/09/05 11:46:21;;;;;;;4.80;4.28;;;28.10;67.20;;;;;;5020640;28;90202;-32
2022/09/05 11:49:22;;;;;;;3.78;3.47;;;28.10;67.10;;;;;;5019933;27;90303;-31
2022/09/05 11:52:06;;;;;;;5.15;4.22;;;28.30;68.90;;;;;;5021090;27;90311;-31
2022/09/05 11:54:56;;;;;;;3.42;3.08;;;28.40;66.20;;;;;;5020542;28;90450;-32
2022/09/05 11:57:31;;;;;;;3.88;3.45;;;28.40;65.00;;;;;;5019039;27;90676;-35
2022/09/05 12:00:25;;;;;;;4.15;3.72;;;28.40;65.70;;;;;;5015514;28;90071;-33
2022/09/05 12:03:16;;;;;;;3.38;3.17;;;28.40;65.70;;;;;;4982915;28;89981;-33
2022/09/05 12:06:07;;;;;;;3.72;3.53;;;28.50;63.20;;;;;;5000850;28;90129;-34
2022/09/05 12:08:48;;;;;;;4.25;3.83;;;28.50;62.60;;;;;;5000322;28;89474;-36
2022/09/05 12:11:39;;;;;;;4.68;3.17;;;28.50;64.00;;;;;;5000052;28;89508;-33
2022/09/05 12:14:24;;;;;;;9.63;4.25;;;28.60;63.10;;;;;;5001239;28;90148;-32
2022/09/05 12:17:19;;;;;;;4.53;4.15;;;28.70;61.50;;;;;;4999753;28;90704;-33
2022/09/05 12:20:06;;;;;;;5.45;3.42;;;28.60;62.00;;;;;;5000749;28;89827;-34
2022/09/05 12:22:50;;;;;;;3.22;2.92;;;28.50;62.60;;;;;;5000222;28;89672;-33
2022/09/05 12:25:35;;;;;;;3.58;3.28;;;28.60;63.40;;;;;;4997113;28;88858;-34
2022/09/05 12:28:07;;;;;;;4.20;3.78;;;28.60;63.40;;;;;;4998869;28;91707;-36
2022/09/05 12:30:36;;;;;;;4.00;3.67;;;28.60;63.00;;;;;;4999417;28;89707;-31
2022/09/05 12:33:11;;;;;;;2.75;2.55;;;28.80;60.20;;;;;;4999018;28;89463;-34
2022/09/05 12:35:46;;;;;;;2.65;2.45;;;28.80;59.80;;;;;;5042848;22;87466;-33
2022/09/05 12:38:31;;;;;;;6.43;3.53;;;28.70;60.80;;;;;;5017891;27;90713;-34
2022/09/05 12:41:10;;;;;;;3.30;3.00;;;28.70;62.20;;;;;;5017403;28;89757;-32
2022/09/05 12:43:44;;;;;;;3.40;3.20;;;28.70;60.70;;;;;;5018010;27;90214;-32
2022/09/05 12:46:25;;;;;;;4.03;3.47;;;28.70;60.30;;;;;;5018337;27;88259;-33
2022/09/05 12:49:13;;;;;;;4.07;2.72;;;28.60;59.10;;;;;;5016641;28;89261;-33
2022/09/05 12:51:45;;;;;;;2.75;2.55;;;28.40;60.00;;;;;;5016680;28;92160;-33
2022/09/05 12:54:26;;;;;;;3.00;2.80;;;28.50;58.20;;;;;;5016602;27;91784;-34
2022/09/05 12:57:15;;;;;;;3.17;2.97;;;28.40;57.70;;;;;;5018607;27;90246;-36
2022/09/05 12:59:46;;;;;;;3.28;3.08;;;28.30;57.60;;;;;;5014127;28;90665;-31
2022/09/05 13:02:22;;;;;;;3.65;3.40;;;28.20;58.40;;;;;;4999035;28;89984;-37
2022/09/05 13:04:56;;;;;;;3.05;2.85;;;28.20;58.90;;;;;;4998914;28;89388;-33
2022/09/05 13:07:39;;;;;;;3.10;2.90;;;28.30;59.10;;;;;;5000167;28;87666;-34
2022/09/05 13:10:21;;;;;;;4.15;3.20;;;28.40;59.50;;;;;;5000502;28;90340;-32
2022/09/05 13:12:53;;;;;;;3.20;3.00;;;28.60;58.50;;;;;;4998503;28;90132;-35
2022/09/05 13:15:25;;;;;;;3.67;3.38;;;28.80;58.00;;;;;;4998997;28;89480;-33
2022/09/05 13:18:14;;;;;;;4.25;3.10;;;28.90;57.70;;;;;;4999079;28;89757;-33
2022/09/05 13:20:50;;;;;;;2.97;2.78;;;28.90;57.50;;;;;;4988152;28;90260;-33
2022/09/05 13:23:34;;;;;;;4.25;2.85;;;28.70;57.00;;;;;;4997340;28;90274;-33
2022/09/05 13:26:11;;;;;;;5.55;4.20;;;28.80;57.90;;;;;;4998452;28;90100;-36
2022/09/05 13:28:55;;;;;;;3.20;3.00;;;28.90;57.30;;;;;;4991746;28;90228;-35
2022/09/05 13:31:39;;;;;;;6.45;4.10;;;28.90;57.20;;;;;;5005009;28;91904;-34
2022/09/05 13:34:12;;;;;;;7.65;3.70;;;28.70;57.90;;;;;;5002987;28;89083;-36
2022/09/05 13:36:50;;;;;;;4.57;3.55;;;28.50;57.40;;;;;;5006868;28;89203;-36
2022/09/05 13:39:21;;;;;;;3.17;2.97;;;28.30;59.30;;;;;;5003047;28;89287;-34
2022/09/05 13:41:58;;;;;;;3.47;3.28;;;28.20;59.00;;;;;;5006763;28;90240;-34
2022/09/05 13:44:25;;;;;;;3.60;3.30;;;28.20;59.00;;;;;;5003053;28;90707;-34
2022/09/05 13:47:08;;;;;;;3.92;3.25;;;28.20;58.60;;;;;;5006521;28;90503;-34
2022/09/05 13:49:53;;;;;;;3.40;3.20;;;28.10;59.20;;;;;;5003189;28;88090;-32
2022/09/05 13:52:28;;;;;;;5.05;3.67;;;27.90;58.50;;;;;;5006742;28;91119;-33
2022/09/05 13:55:21;;;;;;;3.60;3.40;;;27.90;59.50;;;;;;5003570;28;91953;-35